Time;durP1;ratioP1;P1;durP2;ratioP2;P2;SDS_P1;SDS_P2;PMS_P1;PMS_P2;Temp;Humidity;BMP_temperature;BMP_pressure;BME280_temperature;BME280_humidity;BME280_pressure;Samples;Min_cycle;Max_cycle;Signal;HPM_P1;HPM_P2
2022/11/28 00:04:43;;;;;;;4.18;3.10;;;;;;;;;;10449746;28;20119;-49
2022/11/28 00:09:44;;;;;;;6.05;3.08;;;;;;;;;;10450408;28;20027;-53
2022/11/28 00:14:44;;;;;;;5.38;3.10;;;;;;;;;;10452057;28;20063;-54
2022/11/28 00:19:45;;;;;;;6.25;2.80;;;;;;;;;;10451702;28;20033;-55
2022/11/28 00:24:46;;;;;;;5.53;3.58;;;;;;;;;;10446440;28;20036;-56
2022/11/28 00:29:46;;;;;;;8.50;3.08;;;;;;;;;;10448090;28;20021;-56
2022/11/28 00:34:48;;;;;;;9.52;2.95;;;;;;;;;;10445836;28;20079;-57
2022/11/28 00:39:48;;;;;;;4.82;3.00;;;;;;;;;;10442053;28;20364;-57
2022/11/28 00:44:49;;;;;;;6.18;3.03;;;;;;;;;;10448083;28;20434;-56
2022/11/28 00:49:50;;;;;;;3.72;2.70;;;;;;;;;;10450990;28;20484;-57
2022/11/28 00:54:50;;;;;;;4.63;2.67;;;;;;;;;;10449208;28;20503;-57
2022/11/28 00:59:51;;;;;;;6.40;2.88;;;;;;;;;;10450314;28;20475;-56
2022/11/28 01:04:51;;;;;;;3.97;2.75;;;;;;;;;;10450233;28;20012;-56
2022/11/28 01:09:52;;;;;;;4.78;3.28;;;;;;;;;;10443541;28;20033;-55
2022/11/28 01:14:52;;;;;;;5.47;2.95;;;;;;;;;;10450347;28;20021;-55
2022/11/28 01:19:53;;;;;;;5.38;3.42;;;;;;;;;;10437442;28;20036;-55
2022/11/28 01:24:53;;;;;;;4.53;2.60;;;;;;;;;;10448876;28;20029;-54
2022/11/28 01:29:54;;;;;;;6.13;2.63;;;;;;;;;;10438766;28;20443;-54
2022/11/28 01:34:55;;;;;;;5.32;2.95;;;;;;;;;;10448903;28;20029;-53
2022/11/28 01:39:55;;;;;;;4.15;2.83;;;;;;;;;;10444953;28;20033;-54
2022/11/28 01:45:17;;;;;;;4.38;2.78;;;;;;;;;;10448389;28;20033;-54
2022/11/28 01:50:19;;;;;;;5.13;3.05;;;;;;;;;;10446532;28;20037;-55
2022/11/28 01:55:25;;;;;;;9.77;2.97;;;;;;;;;;10449276;28;20044;-56
2022/11/28 02:00:26;;;;;;;4.80;2.95;;;;;;;;;;10429389;28;20502;-57
2022/11/28 02:05:27;;;;;;;4.00;2.80;;;;;;;;;;10447135;28;20029;-55
2022/11/28 02:10:46;;;;;;;4.75;2.80;;;;;;;;;;10435652;28;20476;-56
2022/11/28 02:16:02;;;;;;;3.45;2.60;;;;;;;;;;10421304;28;20021;-53
2022/11/28 02:21:27;;;;;;;3.75;2.75;;;;;;;;;;10429009;28;20386;-56
2022/11/28 02:27:19;;;;;;;3.40;2.40;;;;;;;;;;10425784;28;20044;-56
2022/11/28 02:32:45;;;;;;;5.90;2.78;;;;;;;;;;10447239;28;20028;-56
2022/11/28 02:37:58;;;;;;;4.40;3.00;;;;;;;;;;10412855;28;20056;-57
2022/11/28 02:43:24;;;;;;;3.00;2.53;;;;;;;;;;10447644;28;20029;-55
2022/11/28 02:48:39;;;;;;;4.28;2.88;;;;;;;;;;10391015;28;20033;-56
2022/11/28 02:53:44;;;;;;;4.57;2.65;;;;;;;;;;10431384;28;20105;-56
2022/11/28 02:58:45;;;;;;;6.78;3.00;;;;;;;;;;10441500;28;20491;-54
2022/11/28 03:04:16;;;;;;;4.90;2.80;;;;;;;;;;10455127;28;20033;-55
2022/11/28 03:09:44;;;;;;;5.03;2.50;;;;;;;;;;10425168;28;20136;-55
2022/11/28 03:14:59;;;;;;;4.87;2.90;;;;;;;;;;10451274;28;20078;-53
2022/11/28 03:20:06;;;;;;;4.68;2.75;;;;;;;;;;10420835;28;20032;-52
2022/11/28 03:25:15;;;;;;;4.07;2.95;;;;;;;;;;10453577;28;20025;-54
2022/11/28 03:30:36;;;;;;;3.00;2.38;;;;;;;;;;10453312;28;20036;-55
2022/11/28 03:35:54;;;;;;;3.45;2.67;;;;;;;;;;10453878;28;20029;-57
2022/11/28 03:41:00;;;;;;;2.93;2.50;;;;;;;;;;10415596;28;20052;-49
2022/11/28 03:46:06;;;;;;;3.15;2.40;;;;;;;;;;10435952;28;20043;-55
2022/11/28 03:51:23;;;;;;;2.97;2.60;;;;;;;;;;10447354;28;20120;-52
2022/11/28 03:56:52;;;;;;;4.10;2.78;;;;;;;;;;10436005;28;20108;-53
2022/11/28 04:02:22;;;;;;;2.60;2.10;;;;;;;;;;10424317;28;20115;-54
2022/11/28 04:08:16;;;;;;;3.70;2.80;;;;;;;;;;10439802;28;20395;-54
2022/11/28 04:13:26;;;;;;;3.08;2.47;;;;;;;;;;10435852;28;20029;-54
2022/11/28 04:18:51;;;;;;;3.47;2.40;;;;;;;;;;10450940;28;20128;-54
2022/11/28 04:23:56;;;;;;;3.05;2.50;;;;;;;;;;10452191;28;20049;-56
2022/11/28 04:28:59;;;;;;;3.67;2.55;;;;;;;;;;10450576;28;20056;-58
2022/11/28 04:34:05;;;;;;;3.10;2.40;;;;;;;;;;10434251;28;20033;-56
2022/11/28 04:39:15;;;;;;;3.45;2.60;;;;;;;;;;10432415;28;20472;-57
2022/11/28 04:44:34;;;;;;;3.38;2.80;;;;;;;;;;10451058;28;20063;-58
2022/11/28 04:49:35;;;;;;;3.53;2.60;;;;;;;;;;10449745;28;20045;-56
2022/11/28 04:54:47;;;;;;;3.72;2.55;;;;;;;;;;10450776;28;20430;-55
2022/11/28 04:59:50;;;;;;;2.90;2.60;;;;;;;;;;10449265;28;20124;-53
2022/11/28 05:04:54;;;;;;;2.88;2.22;;;;;;;;;;10449057;28;20029;-53
2022/11/28 05:09:56;;;;;;;2.90;2.38;;;;;;;;;;10433451;28;20021;-53
2022/11/28 05:14:57;;;;;;;3.63;2.63;;;;;;;;;;10448992;28;20048;-54
2022/11/28 05:19:57;;;;;;;3.92;2.55;;;;;;;;;;10449201;28;20503;-54
2022/11/28 05:24:58;;;;;;;3.08;2.35;;;;;;;;;;10448389;28;20410;-54
2022/11/28 05:29:58;;;;;;;3.17;2.40;;;;;;;;;;10448991;28;20025;-54
2022/11/28 05:34:59;;;;;;;3.05;2.45;;;;;;;;;;10447401;28;20037;-54
2022/11/28 05:39:59;;;;;;;3.25;2.15;;;;;;;;;;10449155;28;20055;-55
2022/11/28 05:45:00;;;;;;;5.10;2.72;;;;;;;;;;10440894;28;20108;-53
2022/11/28 05:50:02;;;;;;;3.97;2.38;;;;;;;;;;10444035;28;20029;-54
2022/11/28 05:55:03;;;;;;;2.90;2.47;;;;;;;;;;10448109;28;20069;-55
2022/11/28 06:00:04;;;;;;;3.47;2.20;;;;;;;;;;10445777;28;20041;-55
2022/11/28 06:05:05;;;;;;;3.45;2.70;;;;;;;;;;10427840;28;20034;-54
2022/11/28 06:10:07;;;;;;;3.05;2.45;;;;;;;;;;10446185;28;20392;-58
2022/11/28 06:15:08;;;;;;;4.15;2.40;;;;;;;;;;10443649;28;20065;-54
2022/11/28 06:20:09;;;;;;;5.20;2.90;;;;;;;;;;10444061;28;20518;-55
2022/11/28 06:25:09;;;;;;;4.10;3.08;;;;;;;;;;10444070;28;20045;-57
2022/11/28 06:30:10;;;;;;;5.97;3.45;;;;;;;;;;10443715;28;20051;-58
2022/11/28 06:35:11;;;;;;;6.95;3.10;;;;;;;;;;10455090;28;20025;-54
2022/11/28 06:40:12;;;;;;;10.25;3.10;;;;;;;;;;10455706;28;20032;-56
2022/11/28 06:45:12;;;;;;;4.70;3.13;;;;;;;;;;10450213;28;20465;-55
2022/11/28 06:50:13;;;;;;;5.38;3.47;;;;;;;;;;10443703;28;20041;-51
2022/11/28 06:55:13;;;;;;;10.10;3.15;;;;;;;;;;10453725;28;21547;-60
2022/11/28 07:00:15;;;;;;;4.20;3.30;;;;;;;;;;10450790;28;20052;-56
2022/11/28 07:05:15;;;;;;;6.88;3.65;;;;;;;;;;10444258;28;20021;-56
2022/11/28 07:10:16;;;;;;;7.85;3.67;;;;;;;;;;10449326;28;20052;-58
2022/11/28 07:15:16;;;;;;;7.57;3.47;;;;;;;;;;10454915;28;20124;-57
2022/11/28 07:20:17;;;;;;;8.90;3.85;;;;;;;;;;10442003;28;20487;-57
2022/11/28 07:25:18;;;;;;;9.48;3.38;;;;;;;;;;10453304;28;20045;-53
2022/11/28 07:30:19;;;;;;;9.88;3.78;;;;;;;;;;10453993;28;20036;-54
2022/11/28 07:35:20;;;;;;;21.45;3.60;;;;;;;;;;10453369;28;20365;-54
2022/11/28 07:40:21;;;;;;;7.18;3.78;;;;;;;;;;10453994;28;20021;-56
2022/11/28 07:45:22;;;;;;;8.65;3.70;;;;;;;;;;10452333;28;20060;-56
2022/11/28 07:50:22;;;;;;;6.53;3.22;;;;;;;;;;10452149;28;20021;-57
2022/11/28 07:55:23;;;;;;;9.38;3.60;;;;;;;;;;10453664;28;20017;-54
2022/11/28 08:00:23;;;;;;;6.90;3.63;;;;;;;;;;10451667;28;20029;-55
2022/11/28 08:05:24;;;;;;;6.72;3.38;;;;;;;;;;10452924;28;20388;-54
2022/11/28 08:10:25;;;;;;;6.35;3.30;;;;;;;;;;10452664;28;20115;-57
2022/11/28 08:15:29;;;;;;;6.00;3.75;;;;;;;;;;10452354;28;20029;-54
2022/11/28 08:20:30;;;;;;;4.65;3.10;;;;;;;;;;10452415;28;20119;-56
2022/11/28 08:25:31;;;;;;;5.57;3.38;;;;;;;;;;10451950;28;20041;-53
2022/11/28 08:30:32;;;;;;;10.25;3.70;;;;;;;;;;10451723;28;20039;-55
2022/11/28 08:35:32;;;;;;;6.45;3.33;;;;;;;;;;10434358;28;20052;-55
2022/11/28 08:40:33;;;;;;;5.72;3.40;;;;;;;;;;10450917;28;20025;-55
2022/11/28 08:45:36;;;;;;;5.10;3.10;;;;;;;;;;10450336;28;20021;-55
2022/11/28 08:50:37;;;;;;;3.95;3.33;;;;;;;;;;10451325;28;20164;-55
2022/11/28 08:55:40;;;;;;;6.57;3.67;;;;;;;;;;10450406;28;20476;-58
2022/11/28 09:00:42;;;;;;;5.63;3.50;;;;;;;;;;10450800;28;20086;-56
2022/11/28 09:05:45;;;;;;;5.22;3.65;;;;;;;;;;10450702;28;20028;-55
2022/11/28 09:10:46;;;;;;;3.78;2.97;;;;;;;;;;10450047;28;20090;-54
2022/11/28 09:15:47;;;;;;;3.63;3.05;;;;;;;;;;10450182;28;20040;-59
2022/11/28 09:20:48;;;;;;;6.07;3.47;;;;;;;;;;10449099;28;20431;-54
2022/11/28 09:25:49;;;;;;;4.50;3.08;;;;;;;;;;10448255;28;20055;-55
2022/11/28 09:30:49;;;;;;;6.07;3.55;;;;;;;;;;10449689;28;20037;-55
2022/11/28 09:35:50;;;;;;;4.78;3.10;;;;;;;;;;10449415;28;20079;-59
2022/11/28 09:40:51;;;;;;;7.07;3.55;;;;;;;;;;10446074;28;20025;-57
2022/11/28 09:45:53;;;;;;;4.72;2.85;;;;;;;;;;10449794;28;20047;-52
2022/11/28 09:51:05;;;;;;;6.03;2.95;;;;;;;;;;10419461;28;20037;-53
2022/11/28 09:56:18;;;;;;;5.55;3.13;;;;;;;;;;10440601;28;20032;-54
2022/11/28 10:01:49;;;;;;;6.00;3.42;;;;;;;;;;10442073;28;20291;-55
2022/11/28 10:07:10;;;;;;;6.63;3.70;;;;;;;;;;10429374;28;20061;-55
2022/11/28 10:12:48;;;;;;;6.00;3.00;;;;;;;;;;10427353;28;20044;-55
2022/11/28 10:18:07;;;;;;;5.13;3.10;;;;;;;;;;10435741;28;20037;-54
2022/11/28 10:23:22;;;;;;;5.13;3.05;;;;;;;;;;10440232;28;20383;-55
2022/11/28 10:28:31;;;;;;;7.28;3.05;;;;;;;;;;10436977;28;20075;-55
2022/11/28 10:34:19;;;;;;;4.07;2.97;;;;;;;;;;10427992;28;20021;-54
2022/11/28 10:39:20;;;;;;;4.60;3.03;;;;;;;;;;10390231;28;20387;-51
2022/11/28 10:44:51;;;;;;;6.22;3.70;;;;;;;;;;10443147;28;20437;-57
2022/11/28 10:50:06;;;;;;;7.55;3.13;;;;;;;;;;10445767;28;20369;-58
2022/11/28 10:55:27;;;;;;;5.05;3.83;;;;;;;;;;10441654;28;20034;-56
2022/11/28 11:00:28;;;;;;;5.85;3.20;;;;;;;;;;10445518;28;20511;-54
2022/11/28 11:05:35;;;;;;;5.45;3.42;;;;;;;;;;10422524;28;20032;-54
2022/11/28 11:11:00;;;;;;;8.52;3.80;;;;;;;;;;10445470;28;20021;-55
2022/11/28 11:16:10;;;;;;;3.38;2.95;;;;;;;;;;10426081;28;20029;-54
2022/11/28 11:21:22;;;;;;;4.03;3.22;;;;;;;;;;10444549;28;20057;-54
2022/11/28 11:26:42;;;;;;;3.97;3.40;;;;;;;;;;10440838;28;20091;-53
2022/11/28 11:31:48;;;;;;;6.53;3.55;;;;;;;;;;10435425;28;20033;-55
2022/11/28 11:36:50;;;;;;;8.43;3.28;;;;;;;;;;10450725;28;20039;-56
2022/11/28 11:42:11;;;;;;;5.60;3.47;;;;;;;;;;10452847;28;20028;-60
2022/11/28 11:47:11;;;;;;;3.78;3.10;;;;;;;;;;10447983;28;20040;-55
2022/11/28 11:52:21;;;;;;;4.03;3.35;;;;;;;;;;10436130;28;20375;-54
2022/11/28 11:57:39;;;;;;;7.30;3.72;;;;;;;;;;10434294;28;20028;-55
2022/11/28 12:03:31;;;;;;;5.55;3.45;;;;;;;;;;10431777;28;20032;-55
2022/11/28 12:08:50;;;;;;;5.55;3.38;;;;;;;;;;10435176;28;20045;-59
2022/11/28 12:13:51;;;;;;;5.20;3.17;;;;;;;;;;10438194;28;20116;-54
2022/11/28 12:19:34;;;;;;;5.43;3.25;;;;;;;;;;10446793;28;20056;-55
2022/11/28 12:25:13;;;;;;;4.47;3.20;;;;;;;;;;10438376;28;20496;-54
2022/11/28 12:30:29;;;;;;;6.07;3.00;;;;;;;;;;10442772;28;20033;-55
2022/11/28 12:36:33;;;;;;;7.15;3.40;;;;;;;;;;10452092;28;20543;-54
2022/11/28 12:41:40;;;;;;;5.47;3.38;;;;;;;;;;10428701;28;20419;-55
2022/11/28 12:47:12;;;;;;;3.92;2.85;;;;;;;;;;10446082;28;20086;-55
2022/11/28 12:52:38;;;;;;;4.78;3.20;;;;;;;;;;10443812;28;20431;-54
2022/11/28 12:58:00;;;;;;;4.25;3.20;;;;;;;;;;10430805;28;20032;-54
2022/11/28 13:03:27;;;;;;;6.50;3.20;;;;;;;;;;10442298;28;20036;-56
2022/11/28 13:09:00;;;;;;;5.00;3.22;;;;;;;;;;10449854;28;20025;-55
2022/11/28 13:14:08;;;;;;;5.55;3.38;;;;;;;;;;10439992;28;20021;-54
2022/11/28 13:19:21;;;;;;;3.53;2.55;;;;;;;;;;10431549;28;20127;-52
2022/11/28 13:24:35;;;;;;;4.88;3.33;;;;;;;;;;10443407;28;20045;-52
2022/11/28 13:30:28;;;;;;;4.45;3.00;;;;;;;;;;10421872;28;20522;-51
2022/11/28 13:35:29;;;;;;;6.63;3.03;;;;;;;;;;10379072;28;20123;-54
2022/11/28 13:40:34;;;;;;;4.95;3.38;;;;;;;;;;10421735;28;20036;-53
2022/11/28 13:45:40;;;;;;;6.63;3.55;;;;;;;;;;10437535;28;20365;-54
2022/11/28 13:50:59;;;;;;;4.63;2.92;;;;;;;;;;10423781;28;20036;-54
2022/11/28 13:56:06;;;;;;;6.80;3.25;;;;;;;;;;10416822;28;20103;-54
2022/11/28 14:01:13;;;;;;;5.95;3.08;;;;;;;;;;10443267;28;20033;-56
2022/11/28 14:06:20;;;;;;;4.80;2.95;;;;;;;;;;10447694;28;20021;-56
2022/11/28 14:11:45;;;;;;;6.82;3.50;;;;;;;;;;10447815;28;20029;-54
2022/11/28 14:17:07;;;;;;;4.78;3.22;;;;;;;;;;10430041;28;20025;-51
2022/11/28 14:22:52;;;;;;;6.25;3.25;;;;;;;;;;10435648;28;20027;-55
2022/11/28 14:27:58;;;;;;;5.43;3.63;;;;;;;;;;10431653;28;20124;-58
2022/11/28 14:33:21;;;;;;;5.55;3.45;;;;;;;;;;10429751;28;20050;-52
2022/11/28 14:38:34;;;;;;;6.15;3.95;;;;;;;;;;10442997;28;20025;-53
2022/11/28 14:43:47;;;;;;;6.88;3.55;;;;;;;;;;10445798;28;20033;-57
2022/11/28 14:48:57;;;;;;;8.85;3.47;;;;;;;;;;10446345;28;20109;-55
2022/11/28 14:53:57;;;;;;;6.53;3.58;;;;;;;;;;10452908;28;20029;-54
2022/11/28 14:59:02;;;;;;;5.32;3.15;;;;;;;;;;10456646;28;20033;-53
2022/11/28 15:04:22;;;;;;;5.63;3.70;;;;;;;;;;10455038;28;20132;-53
2022/11/28 15:09:45;;;;;;;4.90;3.72;;;;;;;;;;10437242;28;20017;-55
2022/11/28 15:14:53;;;;;;;3.60;2.80;;;;;;;;;;10432894;28;20029;-53
2022/11/28 15:19:57;;;;;;;5.70;3.30;;;;;;;;;;10443660;28;20040;-54
2022/11/28 15:24:58;;;;;;;3.92;3.20;;;;;;;;;;10466275;22;20373;-62
2022/11/28 15:30:00;;;;;;;4.43;3.10;;;;;;;;;;10495946;28;20028;-63
2022/11/28 15:35:04;;;;;;;4.45;3.05;;;;;;;;;;10490372;28;20107;-62
2022/11/28 15:40:05;;;;;;;5.72;3.15;;;;;;;;;;10459012;28;20033;-62
2022/11/28 15:45:26;;;;;;;5.13;2.78;;;;;;;;;;10290306;28;20071;-62
2022/11/28 15:50:31;;;;;;;9.80;3.20;;;;;;;;;;10248702;28;20261;-60
2022/11/28 15:55:33;;;;;;;10.23;3.10;;;;;;;;;;10463278;28;20027;-60
2022/11/28 16:00:33;;;;;;;3.38;2.75;;;;;;;;;;10464680;28;20486;-59
2022/11/28 16:05:34;;;;;;;4.07;2.58;;;;;;;;;;10441256;28;20035;-60
2022/11/28 16:10:36;;;;;;;7.18;2.92;;;;;;;;;;10471669;28;20033;-60
2022/11/28 16:15:37;;;;;;;3.53;2.60;;;;;;;;;;10469511;28;20054;-59
2022/11/28 16:20:38;;;;;;;5.85;3.22;;;;;;;;;;10492185;28;20039;-59
2022/11/28 16:25:41;;;;;;;6.00;3.15;;;;;;;;;;10477479;28;20515;-58
2022/11/28 16:30:47;;;;;;;4.88;3.00;;;;;;;;;;10464270;28;20023;-59
2022/11/28 16:35:48;;;;;;;3.83;2.92;;;;;;;;;;10468524;28;20025;-60
2022/11/28 16:40:59;;;;;;;6.35;3.30;;;;;;;;;;10464346;28;20471;-60
2022/11/28 16:46:05;;;;;;;4.00;3.33;;;;;;;;;;10487804;28;20025;-60
2022/11/28 16:51:11;;;;;;;5.03;3.30;;;;;;;;;;10474013;28;20063;-60
2022/11/28 16:56:30;;;;;;;6.43;2.92;;;;;;;;;;10490120;28;20070;-62
2022/11/28 17:01:30;;;;;;;4.53;3.60;;;;;;;;;;10488974;28;20028;-61
2022/11/28 17:06:36;;;;;;;6.13;3.45;;;;;;;;;;10489538;28;20028;-60
2022/11/28 17:11:44;;;;;;;5.22;3.67;;;;;;;;;;10489463;28;20028;-61
2022/11/28 17:16:44;;;;;;;4.45;3.70;;;;;;;;;;10480725;28;20265;-61
2022/11/28 17:21:58;;;;;;;6.57;3.75;;;;;;;;;;10464660;28;20279;-60
2022/11/28 17:26:58;;;;;;;6.30;3.90;;;;;;;;;;10441603;28;20040;-60
2022/11/28 17:32:00;;;;;;;5.13;4.20;;;;;;;;;;10469413;28;20029;-60
2022/11/28 17:37:03;;;;;;;4.82;3.40;;;;;;;;;;10471968;28;20040;-61
2022/11/28 17:42:04;;;;;;;6.57;4.38;;;;;;;;;;10455754;28;20033;-62
2022/11/28 17:47:05;;;;;;;6.65;3.78;;;;;;;;;;10433335;28;20100;-61
2022/11/28 17:52:06;;;;;;;7.32;3.95;;;;;;;;;;10441106;28;20029;-62
2022/11/28 17:57:08;;;;;;;8.68;3.92;;;;;;;;;;10432810;28;20025;-61
2022/11/28 18:02:09;;;;;;;7.43;4.03;;;;;;;;;;10426562;28;20025;-61
2022/11/28 18:07:10;;;;;;;8.65;4.07;;;;;;;;;;10431461;28;20029;-61
2022/11/28 18:12:11;;;;;;;8.60;4.30;;;;;;;;;;10447085;28;20029;-61
2022/11/28 18:17:11;;;;;;;4.40;3.85;;;;;;;;;;10485447;28;20017;-61
2022/11/28 18:22:12;;;;;;;5.30;3.97;;;;;;;;;;10448543;28;20432;-62
2022/11/28 18:27:12;;;;;;;8.48;4.32;;;;;;;;;;10436649;28;20049;-61
2022/11/28 18:32:13;;;;;;;8.00;4.80;;;;;;;;;;10438073;28;20037;-61
2022/11/28 18:37:13;;;;;;;7.40;4.38;;;;;;;;;;10453909;28;20453;-61
2022/11/28 18:42:15;;;;;;;9.20;4.90;;;;;;;;;;10450131;28;20040;-61
2022/11/28 18:47:16;;;;;;;10.55;5.13;;;;;;;;;;10452552;28;20027;-62
2022/11/28 18:52:16;;;;;;;15.88;6.88;;;;;;;;;;10468256;28;20122;-62
2022/11/28 18:57:17;;;;;;;17.08;7.60;;;;;;;;;;10464622;28;20036;-60
2022/11/28 19:02:18;;;;;;;17.10;7.75;;;;;;;;;;10457931;28;20063;-62
2022/11/28 19:07:19;;;;;;;14.57;7.43;;;;;;;;;;10451300;28;20040;-62
2022/11/28 19:12:20;;;;;;;16.67;7.60;;;;;;;;;;10420637;28;20025;-59
2022/11/28 19:17:20;;;;;;;15.70;7.32;;;;;;;;;;10433683;28;20037;-60
2022/11/28 19:22:21;;;;;;;26.63;8.25;;;;;;;;;;10455582;28;20044;-62
2022/11/28 19:27:22;;;;;;;13.85;7.75;;;;;;;;;;10456953;28;20043;-61
2022/11/28 19:32:23;;;;;;;18.25;7.95;;;;;;;;;;10456816;28;20032;-60
2022/11/28 19:37:24;;;;;;;16.42;7.22;;;;;;;;;;10461486;28;20029;-60
2022/11/28 19:42:24;;;;;;;16.95;7.28;;;;;;;;;;10451002;28;20040;-62
2022/11/28 19:47:25;;;;;;;16.25;8.18;;;;;;;;;;10447351;28;20464;-63
2022/11/28 19:52:26;;;;;;;17.52;8.02;;;;;;;;;;10450651;28;20024;-62
2022/11/28 19:57:27;;;;;;;22.02;8.52;;;;;;;;;;10457138;28;20508;-62
2022/11/28 20:02:27;;;;;;;19.25;7.63;;;;;;;;;;10453570;28;20037;-63
2022/11/28 20:07:28;;;;;;;15.95;7.63;;;;;;;;;;10448974;28;20079;-62
2022/11/28 20:12:29;;;;;;;18.40;7.32;;;;;;;;;;10441380;28;20025;-63
2022/11/28 20:17:29;;;;;;;16.38;7.95;;;;;;;;;;10474855;28;20094;-59
2022/11/28 20:22:30;;;;;;;20.52;8.45;;;;;;;;;;10472243;28;20041;-63
2022/11/28 20:27:30;;;;;;;20.60;7.85;;;;;;;;;;10477154;28;20040;-62
2022/11/28 20:32:31;;;;;;;19.80;8.25;;;;;;;;;;10446808;28;20584;-62
2022/11/28 20:37:32;;;;;;;17.40;8.13;;;;;;;;;;10452985;28;20064;-63
2022/11/28 20:42:33;;;;;;;16.73;7.63;;;;;;;;;;10447315;28;20025;-62
2022/11/28 20:47:34;;;;;;;15.82;7.82;;;;;;;;;;10446885;28;20108;-63
2022/11/28 20:52:34;;;;;;;19.30;7.95;;;;;;;;;;10434178;28;20029;-62
2022/11/28 20:57:35;;;;;;;18.88;8.00;;;;;;;;;;10442444;28;20079;-63
2022/11/28 21:02:35;;;;;;;16.17;7.88;;;;;;;;;;10441314;28;20064;-62
2022/11/28 21:07:37;;;;;;;14.90;7.38;;;;;;;;;;10435734;28;20025;-62
2022/11/28 21:12:38;;;;;;;15.77;7.30;;;;;;;;;;10449870;28;20431;-62
2022/11/28 21:17:38;;;;;;;10.70;6.45;;;;;;;;;;10449860;28;20028;-62
2022/11/28 21:22:39;;;;;;;11.77;6.50;;;;;;;;;;10451762;28;20037;-63
2022/11/28 21:27:39;;;;;;;19.17;7.53;;;;;;;;;;10462700;28;20112;-63
2022/11/28 21:32:40;;;;;;;15.23;7.45;;;;;;;;;;10446747;28;20029;-62
2022/11/28 21:37:41;;;;;;;15.13;7.22;;;;;;;;;;10443986;28;20034;-62
2022/11/28 21:42:41;;;;;;;14.40;7.43;;;;;;;;;;10437829;28;20036;-62
2022/11/28 21:47:42;;;;;;;11.85;5.97;;;;;;;;;;10441252;28;20033;-62
2022/11/28 21:52:42;;;;;;;10.98;6.40;;;;;;;;;;10453382;28;20025;-62
2022/11/28 21:57:43;;;;;;;11.85;6.57;;;;;;;;;;10457442;28;20472;-62
2022/11/28 22:02:48;;;;;;;13.63;6.60;;;;;;;;;;10445129;28;20365;-63
2022/11/28 22:07:48;;;;;;;15.00;5.95;;;;;;;;;;10449576;28;20442;-67
2022/11/28 22:12:49;;;;;;;12.85;6.05;;;;;;;;;;10447266;28;20051;-65
2022/11/28 22:17:50;;;;;;;16.77;6.68;;;;;;;;;;10470940;28;20048;-65
2022/11/28 22:22:50;;;;;;;11.90;6.07;;;;;;;;;;10443944;28;20033;-64
2022/11/28 22:27:51;;;;;;;11.77;6.20;;;;;;;;;;10444775;28;20041;-60
2022/11/28 22:32:51;;;;;;;17.73;7.03;;;;;;;;;;10447125;28;20032;-61
2022/11/28 22:37:53;;;;;;;15.05;6.32;;;;;;;;;;10447625;28;21365;-61
2022/11/28 22:42:54;;;;;;;13.27;6.32;;;;;;;;;;10468922;28;20029;-61
2022/11/28 22:47:55;;;;;;;14.65;6.18;;;;;;;;;;10452363;28;20183;-61
2022/11/28 22:52:56;;;;;;;10.70;6.25;;;;;;;;;;10455519;28;20048;-60
2022/11/28 22:57:56;;;;;;;13.95;6.25;;;;;;;;;;10460122;28;20561;-61
2022/11/28 23:02:57;;;;;;;9.43;5.47;;;;;;;;;;10463853;28;20434;-61
2022/11/28 23:07:58;;;;;;;19.65;6.50;;;;;;;;;;10466150;28;20464;-61
2022/11/28 23:12:58;;;;;;;14.18;6.18;;;;;;;;;;10460910;28;20033;-60
2022/11/28 23:17:59;;;;;;;12.25;6.13;;;;;;;;;;10478190;28;20464;-60
2022/11/28 23:22:59;;;;;;;14.55;5.90;;;;;;;;;;10456778;28;20530;-61
2022/11/28 23:28:00;;;;;;;15.15;5.97;;;;;;;;;;10485698;28;20045;-60
2022/11/28 23:33:01;;;;;;;14.60;6.55;;;;;;;;;;10444250;28;20047;-61
2022/11/28 23:38:01;;;;;;;10.23;5.75;;;;;;;;;;10448334;28;20294;-65
2022/11/28 23:43:02;;;;;;;12.77;6.15;;;;;;;;;;10481172;28;20040;-66
2022/11/28 23:48:02;;;;;;;11.88;5.95;;;;;;;;;;10480269;28;20031;-65
2022/11/28 23:53:03;;;;;;;12.15;5.75;;;;;;;;;;10481602;28;20029;-64
2022/11/28 23:58:04;;;;;;;14.75;6.07;;;;;;;;;;10480034;28;20616;-65
